createdAt,value
2018-05-21T00:01:06.731Z,11.30
2018-05-21T00:03:42.962Z,9.33
2018-05-21T00:06:20.244Z,7.70
2018-05-21T00:08:56.595Z,7.80
2018-05-21T00:11:33.053Z,9.50
2018-05-21T00:14:09.965Z,6.70
2018-05-21T00:16:46.863Z,6.63
2018-05-21T00:19:22.769Z,9.93
2018-05-21T00:21:59.201Z,7.27
2018-05-21T00:24:35.394Z,10.17
2018-05-21T00:27:11.705Z,8.03
2018-05-21T00:29:48.841Z,7.77
2018-05-21T00:32:24.972Z,11.40
2018-05-21T00:35:01.315Z,7.67
2018-05-21T00:37:39.161Z,9.83
2018-05-21T00:40:15.101Z,9.03
2018-05-21T00:42:51.094Z,8.53
2018-05-21T00:45:28.332Z,8.97
2018-05-21T00:48:04.699Z,8.43
2018-05-21T00:50:40.839Z,8.00
2018-05-21T00:53:19.001Z,8.63
2018-05-21T00:55:55.537Z,10.07
2018-05-21T00:58:32.028Z,8.63
2018-05-21T01:01:08.624Z,12.27
2018-05-21T01:03:45.446Z,9.47
2018-05-21T01:06:21.503Z,10.80
2018-05-21T01:08:58.764Z,9.60
2018-05-21T01:11:35.537Z,7.60
2018-05-21T01:14:12.423Z,8.13
2018-05-21T01:16:49.938Z,8.57
2018-05-21T01:19:25.980Z,8.60
2018-05-21T01:22:03.831Z,11.60
2018-05-21T01:24:40.157Z,8.13
2018-05-21T01:27:16.826Z,8.93
2018-05-21T01:29:52.957Z,11.77
2018-05-21T01:32:29.189Z,9.47
2018-05-21T01:35:06.074Z,9.50
2018-05-21T01:37:42.912Z,7.50
2018-05-21T01:40:18.992Z,7.50
2018-05-21T01:42:55.653Z,8.50
2018-05-21T01:45:32.236Z,8.33
2018-05-21T01:48:08.535Z,9.03
2018-05-21T01:50:45.087Z,10.40
2018-05-21T01:53:24.768Z,9.50
2018-05-21T01:56:01.474Z,7.43
2018-05-21T01:58:38.131Z,9.27
2018-05-21T02:01:14.736Z,9.77
2018-05-21T02:03:52.790Z,10.33
2018-05-21T02:06:29.022Z,9.03
2018-05-21T02:09:05.708Z,8.27
2018-05-21T02:11:41.966Z,7.80
2018-05-21T02:14:18.533Z,8.27
2018-05-21T02:16:54.528Z,9.33
2018-05-21T02:19:30.644Z,10.17
2018-05-21T02:22:06.985Z,8.13
2018-05-21T02:24:44.032Z,10.13
2018-05-21T02:27:20.003Z,9.17
2018-05-21T02:29:56.502Z,6.77
2018-05-21T02:32:33.555Z,8.10
2018-05-21T02:35:11.570Z,7.90
2018-05-21T02:37:48.080Z,10.77
2018-05-21T02:40:24.928Z,9.37
2018-05-21T02:43:01.851Z,8.07
2018-05-21T02:45:37.948Z,9.30
2018-05-21T02:48:14.229Z,9.70
2018-05-21T02:50:50.555Z,8.97
2018-05-21T02:53:27.201Z,8.30
2018-05-21T02:56:03.050Z,8.03
2018-05-21T02:58:38.787Z,11.93
2018-05-21T03:01:15.084Z,9.23
2018-05-21T03:03:51.464Z,9.40
2018-05-21T03:06:27.715Z,8.20
2018-05-21T03:09:04.165Z,10.63
2018-05-21T03:11:40.439Z,9.17
2018-05-21T03:14:16.919Z,10.43
2018-05-21T03:16:53.364Z,8.53
2018-05-21T03:19:29.240Z,8.73
2018-05-21T03:22:05.274Z,9.97
2018-05-21T03:24:42.254Z,9.67
2018-05-21T03:27:18.063Z,9.13
2018-05-21T03:29:54.439Z,13.43
2018-05-21T03:32:31.625Z,8.83
2018-05-21T03:35:08.491Z,11.07
2018-05-21T03:37:45.669Z,9.07
2018-05-21T03:40:21.935Z,9.87
2018-05-21T03:42:58.199Z,9.03
2018-05-21T03:45:34.615Z,9.17
2018-05-21T03:48:10.889Z,9.10
2018-05-21T03:50:47.583Z,10.37
2018-05-21T03:53:24.482Z,8.87
2018-05-21T03:56:01.369Z,9.00
2018-05-21T03:58:48.456Z,8.57
2018-05-21T04:02:36.687Z,10.87
2018-05-21T04:05:12.609Z,11.30
2018-05-21T04:07:49.009Z,7.70
2018-05-21T04:10:26.168Z,9.63
2018-05-21T04:13:02.257Z,9.57
2018-05-21T04:15:38.583Z,9.87
2018-05-21T04:18:16.321Z,8.17
2018-05-21T04:20:52.805Z,8.13
2018-05-21T04:23:29.566Z,8.33
2018-05-21T04:26:06.582Z,8.23
2018-05-21T04:28:42.872Z,8.70
2018-05-21T04:31:20.564Z,10.27
2018-05-21T04:33:56.822Z,8.57
2018-05-21T04:36:34.856Z,7.20
2018-05-21T04:39:10.711Z,8.50
2018-05-21T04:41:47.229Z,9.10
2018-05-21T04:44:23.293Z,9.40
2018-05-21T04:46:59.444Z,10.43
2018-05-21T04:49:36.002Z,8.10
2018-05-21T04:52:11.759Z,9.03
2018-05-21T04:54:48.285Z,7.37
2018-05-21T04:57:25.457Z,10.30
2018-05-21T05:00:01.671Z,8.87
2018-05-21T05:02:37.794Z,10.10
2018-05-21T05:05:14.867Z,7.23
2018-05-21T05:07:51.779Z,8.47
2018-05-21T05:10:28.305Z,9.60
2018-05-21T05:13:05.152Z,8.90
2018-05-21T05:15:41.256Z,8.47
2018-05-21T05:18:17.927Z,8.77
2018-05-21T05:20:54.297Z,8.53
2018-05-21T05:23:30.984Z,8.47
2018-05-21T05:26:07.269Z,8.40
2018-05-21T05:28:45.917Z,7.57
2018-05-21T05:31:22.198Z,8.03
2018-05-21T05:33:58.582Z,13.13
2018-05-21T05:36:35.310Z,9.67
2018-05-21T05:39:11.368Z,10.23
2018-05-21T05:41:47.283Z,8.83
2018-05-21T05:44:23.755Z,9.13
2018-05-21T05:46:59.986Z,7.97
2018-05-21T05:49:36.365Z,7.57
2018-05-21T05:52:12.510Z,6.53
2018-05-21T05:54:48.597Z,6.77
2018-05-21T05:57:25.018Z,9.60
2018-05-21T06:00:01.157Z,7.07
2018-05-21T06:02:37.032Z,10.73
2018-05-21T06:05:13.974Z,9.83
2018-05-21T06:07:50.486Z,6.20
2018-05-21T06:10:26.928Z,5.87
2018-05-21T06:13:04.192Z,6.00
2018-05-21T06:15:39.992Z,9.57
2018-05-21T06:18:16.612Z,5.53
2018-05-21T06:20:52.844Z,5.77
2018-05-21T06:23:28.915Z,8.17
2018-05-21T06:26:05.162Z,4.87
2018-05-21T06:28:41.531Z,5.77
2018-05-21T06:31:17.802Z,4.77
2018-05-21T06:33:54.371Z,4.70
2018-05-21T06:36:32.210Z,5.23
2018-05-21T06:39:09.152Z,5.23
2018-05-21T06:41:45.695Z,5.53
2018-05-21T06:44:22.056Z,6.33
2018-05-21T06:46:59.788Z,5.23
2018-05-21T06:49:36.452Z,8.37
2018-05-21T06:52:13.460Z,6.10
2018-05-21T06:54:49.440Z,6.70
2018-05-21T06:57:25.946Z,6.13
2018-05-21T07:00:02.708Z,6.83
2018-05-21T07:02:39.104Z,5.60
2018-05-21T07:05:15.866Z,5.77
2018-05-21T07:07:53.016Z,6.63
2018-05-21T07:10:29.612Z,7.00
2018-05-21T07:13:06.247Z,5.47
2018-05-21T07:15:42.464Z,8.60
2018-05-21T07:18:19.184Z,5.50
2018-05-21T07:20:55.678Z,13.50
2018-05-21T07:23:32.699Z,6.20
2018-05-21T07:26:08.806Z,8.83
2018-05-21T07:28:46.026Z,7.57
2018-05-21T07:31:22.335Z,8.23
2018-05-21T07:33:59.378Z,6.27
2018-05-21T07:36:36.425Z,6.33
2018-05-21T07:39:13.629Z,6.20
2018-05-21T07:41:49.729Z,6.20
2018-05-21T07:44:27.601Z,4.70
2018-05-21T07:47:04.047Z,7.40
2018-05-21T07:49:40.963Z,5.83
2018-05-21T07:52:17.410Z,7.00
2018-05-21T07:54:53.472Z,6.30
2018-05-21T07:57:29.498Z,6.30
2018-05-21T08:00:06.336Z,4.93
2018-05-21T08:02:42.664Z,4.60
2018-05-21T08:05:18.934Z,6.00
2018-05-21T08:07:55.544Z,5.27
2018-05-21T08:10:32.938Z,6.47
2018-05-21T08:13:10.168Z,4.63
2018-05-21T08:15:46.710Z,7.93
2018-05-21T08:18:23.054Z,6.13
2018-05-21T08:21:00.341Z,5.67
2018-05-21T08:23:37.533Z,5.10
2018-05-21T08:26:13.802Z,5.63
2018-05-21T08:28:51.994Z,4.70
2018-05-21T08:31:29.090Z,4.87
2018-05-21T08:34:05.917Z,4.73
2018-05-21T08:36:42.193Z,4.97
2018-05-21T08:39:18.929Z,5.67
2018-05-21T08:41:55.017Z,7.27
2018-05-21T08:44:32.427Z,6.00
2018-05-21T08:47:08.567Z,5.53
2018-05-21T08:49:44.865Z,4.03
2018-05-21T08:52:20.872Z,5.73
2018-05-21T08:54:57.216Z,4.20
2018-05-21T08:57:34.348Z,5.17
2018-05-21T09:00:11.380Z,4.23
2018-05-21T09:02:48.401Z,4.60
2018-05-21T09:05:24.831Z,4.37
2018-05-21T09:08:01.379Z,4.40
2018-05-21T09:10:38.578Z,4.57
2018-05-21T09:13:14.787Z,4.77
2018-05-21T09:15:50.895Z,5.13
2018-05-21T09:18:28.686Z,4.60
2018-05-21T09:21:04.822Z,4.93
2018-05-21T09:23:42.451Z,8.27
2018-05-21T09:26:20.905Z,6.40
2018-05-21T09:28:58.038Z,5.97
2018-05-21T09:31:34.989Z,5.27
2018-05-21T09:34:11.091Z,4.33
2018-05-21T09:36:47.771Z,6.63
2018-05-21T09:39:23.970Z,6.47
2018-05-21T09:42:00.015Z,5.23
2018-05-21T09:44:36.927Z,6.83
2018-05-21T09:47:14.756Z,4.30
2018-05-21T09:49:57.461Z,3.70
2018-05-21T09:52:33.585Z,6.50
2018-05-21T09:55:09.568Z,4.10
2018-05-21T09:57:45.421Z,6.07
2018-05-21T10:00:24.248Z,6.50
2018-05-21T10:05:37.355Z,4.33
2018-05-21T10:08:15.112Z,5.23
2018-05-21T10:10:51.826Z,3.73
2018-05-21T10:13:28.926Z,3.30
2018-05-21T10:16:05.714Z,4.03
2018-05-21T10:18:42.167Z,5.73
2018-05-21T10:21:18.448Z,5.63
2018-05-21T10:23:54.905Z,4.23
2018-05-21T10:26:30.944Z,3.67
2018-05-21T10:29:07.335Z,3.50
2018-05-21T10:31:43.767Z,6.73
2018-05-21T10:34:20.041Z,5.43
2018-05-21T10:36:56.769Z,4.87
2018-05-21T10:39:33.154Z,4.43
2018-05-21T10:42:08.966Z,3.83
2018-05-21T10:44:45.717Z,3.87
2018-05-21T10:47:21.667Z,4.37
2018-05-21T10:49:58.641Z,3.47
2018-05-21T10:52:35.335Z,5.30
2018-05-21T10:55:11.494Z,4.83
2018-05-21T10:57:47.641Z,3.93
2018-05-21T11:00:24.157Z,4.30
2018-05-21T11:03:00.969Z,3.40
2018-05-21T11:05:37.367Z,6.10
2018-05-21T11:08:13.296Z,3.60
2018-05-21T11:10:49.695Z,6.30
2018-05-21T11:13:26.203Z,3.40
2018-05-21T11:16:02.032Z,5.17
2018-05-21T11:18:38.148Z,6.90
2018-05-21T11:21:14.608Z,3.97
2018-05-21T11:23:51.140Z,5.07
2018-05-21T11:26:26.998Z,8.50
2018-05-21T11:29:03.383Z,5.23
2018-05-21T11:31:39.276Z,4.43
2018-05-21T11:34:15.328Z,4.37
2018-05-21T11:36:52.221Z,3.47
2018-05-21T11:39:28.368Z,3.77
2018-05-21T11:42:05.549Z,5.47
2018-05-21T11:44:42.836Z,3.97
2018-05-21T11:47:18.835Z,6.03
2018-05-21T11:49:54.968Z,5.93
2018-05-21T11:52:31.341Z,4.40
2018-05-21T11:55:09.005Z,4.17
2018-05-21T11:57:45.771Z,7.27
2018-05-21T12:00:22.871Z,5.33
2018-05-21T12:02:59.366Z,3.77
2018-05-21T12:05:35.316Z,4.50
2018-05-21T12:08:11.873Z,7.40
2018-05-21T12:10:48.075Z,5.80
2018-05-21T12:13:24.005Z,4.70
2018-05-21T12:16:00.415Z,7.23
2018-05-21T12:18:36.798Z,4.17
2018-05-21T12:21:12.948Z,4.23
2018-05-21T12:23:48.990Z,5.77
2018-05-21T12:26:24.990Z,5.23
2018-05-21T12:29:00.961Z,6.37
2018-05-21T12:31:36.940Z,5.57
2018-05-21T12:34:13.018Z,5.73
2018-05-21T12:36:49.344Z,5.00
2018-05-21T12:39:25.334Z,5.37
2018-05-21T12:42:02.377Z,4.43
2018-05-21T12:44:38.839Z,4.37
2018-05-21T12:47:16.650Z,6.57
2018-05-21T12:49:53.315Z,4.10
2018-05-21T12:52:29.236Z,3.00
2018-05-21T12:55:06.610Z,4.93
2018-05-21T12:57:42.506Z,3.10
2018-05-21T13:00:19.430Z,4.07
2018-05-21T13:02:56.252Z,5.10
2018-05-21T13:05:32.278Z,3.03
2018-05-21T13:08:08.312Z,4.10
2018-05-21T13:10:44.642Z,3.87
2018-05-21T13:13:21.108Z,6.00
2018-05-21T13:15:57.184Z,8.73
2018-05-21T13:18:33.390Z,3.70
2018-05-21T13:21:09.256Z,2.70
2018-05-21T13:23:45.360Z,4.67
2018-05-21T13:26:22.889Z,3.80
2018-05-21T13:28:59.861Z,4.83
2018-05-21T13:31:36.466Z,8.30
2018-05-21T13:34:12.308Z,3.80
2018-05-21T13:36:48.398Z,6.00
2018-05-21T13:39:24.603Z,4.00
2018-05-21T13:42:00.700Z,3.77
2018-05-21T13:44:37.584Z,3.60
2018-05-21T13:47:13.861Z,4.60
2018-05-21T13:49:51.338Z,3.17
2018-05-21T13:52:27.682Z,6.37
2018-05-21T13:55:03.990Z,2.90
2018-05-21T13:57:39.923Z,3.97
2018-05-21T14:00:16.753Z,4.93
2018-05-21T14:02:53.931Z,3.10
2018-05-21T14:05:30.590Z,6.67
2018-05-21T14:08:07.756Z,5.77
2018-05-21T14:10:44.193Z,3.07
2018-05-21T14:13:20.776Z,3.83
2018-05-21T14:15:56.578Z,4.17
2018-05-21T14:18:32.517Z,3.87
2018-05-21T14:21:09.547Z,4.20
2018-05-21T14:23:46.490Z,3.00
2018-05-21T14:26:22.653Z,3.23
2018-05-21T14:28:58.563Z,4.47
2018-05-21T14:31:34.624Z,3.77
2018-05-21T14:34:10.700Z,4.17
2018-05-21T14:36:47.076Z,3.93
2018-05-21T14:39:23.739Z,5.00
2018-05-21T14:42:01.465Z,4.50
2018-05-21T14:44:37.800Z,5.27
2018-05-21T14:47:14.632Z,5.43
2018-05-21T14:49:50.663Z,5.17
2018-05-21T14:52:27.654Z,3.37
2018-05-21T14:55:03.923Z,4.20
2018-05-21T14:57:39.852Z,5.17
2018-05-21T15:00:16.135Z,3.50
2018-05-21T15:02:52.864Z,4.77
2018-05-21T15:05:30.612Z,4.57
2018-05-21T15:08:06.768Z,2.93
2018-05-21T15:10:43.233Z,4.10
2018-05-21T15:13:20.055Z,9.87
2018-05-21T15:15:56.500Z,4.90
2018-05-21T15:18:34.408Z,4.83
2018-05-21T15:21:11.515Z,3.93
2018-05-21T15:23:48.101Z,4.63
2018-05-21T15:26:24.652Z,4.70
2018-05-21T15:29:01.764Z,5.03
2018-05-21T15:31:38.800Z,4.77
2018-05-21T15:34:15.026Z,3.90
2018-05-21T15:36:50.987Z,3.40
2018-05-21T15:39:27.374Z,5.90
2018-05-21T15:42:03.540Z,7.47
2018-05-21T15:44:39.373Z,6.17
2018-05-21T15:47:16.319Z,5.27
2018-05-21T15:49:53.776Z,4.43
2018-05-21T15:52:31.251Z,6.33
2018-05-21T15:55:07.930Z,4.50
2018-05-21T15:57:44.857Z,3.80
2018-05-21T16:00:20.707Z,3.10
2018-05-21T16:02:57.863Z,7.37
2018-05-21T16:05:33.876Z,5.57
2018-05-21T16:08:09.951Z,4.03
2018-05-21T16:10:46.453Z,4.00
2018-05-21T16:13:23.290Z,5.37
2018-05-21T16:15:59.231Z,4.43
2018-05-21T16:18:34.989Z,4.82
2018-05-21T16:21:10.951Z,3.00
2018-05-21T16:23:46.900Z,6.07
2018-05-21T16:26:23.275Z,4.10
2018-05-21T16:28:59.212Z,4.37
2018-05-21T16:31:34.929Z,3.30
2018-05-21T16:34:11.893Z,3.60
2018-05-21T16:36:47.811Z,3.95
2018-05-21T16:39:24.166Z,3.83
2018-05-21T16:42:00.130Z,6.62
2018-05-21T16:44:39.047Z,4.00
2018-05-21T16:47:20.344Z,5.53
2018-05-21T16:49:57.332Z,4.45
2018-05-21T16:52:33.395Z,3.92
2018-05-21T16:55:10.313Z,3.40
2018-05-21T16:57:49.945Z,5.35
2018-05-21T17:00:32.168Z,5.37
2018-05-21T17:03:14.920Z,5.30
2018-05-21T17:05:56.444Z,4.40
2018-05-21T17:08:33.222Z,3.78
2018-05-21T17:11:09.470Z,3.85
2018-05-21T17:13:48.396Z,4.03
2018-05-21T17:16:25.040Z,3.50
2018-05-21T17:19:13.175Z,3.65
2018-05-21T17:21:53.500Z,4.30
2018-05-21T17:24:35.847Z,4.07
2018-05-21T17:27:24.107Z,3.80
2018-05-21T17:30:07.190Z,6.50
2018-05-21T17:32:46.837Z,6.07
2018-05-21T17:35:23.527Z,6.35
2018-05-21T17:38:04.790Z,5.82
2018-05-21T17:40:41.362Z,4.62
2018-05-21T17:43:18.017Z,6.25
2018-05-21T17:45:56.141Z,5.22
2018-05-21T17:48:33.344Z,4.95
2018-05-21T17:51:09.792Z,4.47
2018-05-21T17:53:46.025Z,5.67
2018-05-21T17:56:22.716Z,4.78
2018-05-21T17:59:00.216Z,4.93
2018-05-21T18:01:39.452Z,5.07
2018-05-21T18:04:20.453Z,5.33
2018-05-21T18:07:05.858Z,3.83
2018-05-21T18:09:44.535Z,5.23
2018-05-21T18:12:20.557Z,3.30
2018-05-21T18:14:57.616Z,4.40
2018-05-21T18:17:39.221Z,6.60
2018-05-21T18:20:21.565Z,4.03
2018-05-21T18:23:03.382Z,3.23
2018-05-21T18:25:40.330Z,4.17
2018-05-21T18:28:16.800Z,4.47
2018-05-21T18:30:53.629Z,10.23
2018-05-21T18:33:31.129Z,4.23
2018-05-21T18:36:07.445Z,5.90
2018-05-21T18:38:43.579Z,3.30
2018-05-21T18:41:20.149Z,6.07
2018-05-21T18:43:58.257Z,3.40
2018-05-21T18:46:37.378Z,8.70
2018-05-21T18:49:14.045Z,26.23
2018-05-21T18:51:51.048Z,11.93
2018-05-21T18:54:29.249Z,6.83
2018-05-21T18:58:30.015Z,4.80
2018-05-21T19:01:06.802Z,4.87
2018-05-21T19:03:44.189Z,3.50
2018-05-21T19:06:21.676Z,4.47
2018-05-21T19:08:58.227Z,4.17
2018-05-21T19:11:34.578Z,3.83
2018-05-21T19:14:11.961Z,3.70
2018-05-21T19:16:49.505Z,10.80
2018-05-21T19:19:30.901Z,7.27
2018-05-21T19:22:07.983Z,5.43
2018-05-21T19:24:44.726Z,5.50
2018-05-21T19:27:21.250Z,5.90
2018-05-21T19:29:57.507Z,6.47
2018-05-21T19:32:33.909Z,5.87
2018-05-21T19:35:11.045Z,3.50
2018-05-21T19:37:47.490Z,5.57
2018-05-21T19:40:23.756Z,7.10
2018-05-21T19:43:00.272Z,5.40
2018-05-21T19:45:36.486Z,5.10
2018-05-21T19:48:13.119Z,5.97
2018-05-21T19:50:50.095Z,4.57
2018-05-21T19:53:27.269Z,4.90
2018-05-21T19:56:04.937Z,4.63
2018-05-21T19:58:41.448Z,9.67
2018-05-21T20:01:18.678Z,3.37
2018-05-21T20:03:55.806Z,5.10
2018-05-21T20:06:33.217Z,3.90
2018-05-21T20:09:10.097Z,7.67
2018-05-21T20:11:46.604Z,4.60
2018-05-21T20:14:22.685Z,4.57
2018-05-21T20:16:59.167Z,5.13
2018-05-21T20:19:36.302Z,3.43
2018-05-21T20:22:12.445Z,3.70
2018-05-21T20:24:49.669Z,4.13
2018-05-21T20:27:27.236Z,5.97
2018-05-21T20:30:03.105Z,5.57
2018-05-21T20:32:39.435Z,3.63
2018-05-21T20:35:15.399Z,5.63
2018-05-21T20:37:51.751Z,3.33
2018-05-21T20:40:28.174Z,3.27
2018-05-21T20:43:04.288Z,4.60
2018-05-21T20:45:42.797Z,5.97
2018-05-21T20:48:19.302Z,3.40
2018-05-21T20:50:56.180Z,5.57
2018-05-21T20:53:33.926Z,4.33
2018-05-21T20:56:10.340Z,4.70
2018-05-21T20:58:46.638Z,5.00
2018-05-21T21:01:24.038Z,4.73
2018-05-21T21:04:01.304Z,5.47
2018-05-21T21:06:37.469Z,3.60
2018-05-21T21:09:14.675Z,3.20
2018-05-21T21:11:52.696Z,11.97
2018-05-21T21:14:29.431Z,3.53
2018-05-21T21:17:05.450Z,3.37
2018-05-21T21:19:42.714Z,3.33
2018-05-21T21:22:19.891Z,5.03
2018-05-21T21:24:57.612Z,5.20
2018-05-21T21:27:35.043Z,4.83
2018-05-21T21:30:11.370Z,6.80
2018-05-21T21:32:47.589Z,5.73
2018-05-21T21:35:25.886Z,3.67
2018-05-21T21:38:02.193Z,3.30
2018-05-21T21:40:39.725Z,3.70
2018-05-21T21:43:16.856Z,6.87
2018-05-21T21:45:53.627Z,7.03
2018-05-21T21:48:29.708Z,4.83
2018-05-21T21:51:05.937Z,5.93
2018-05-21T21:53:42.783Z,6.47
2018-05-21T21:56:19.863Z,3.77
2018-05-21T21:58:57.244Z,3.87
2018-05-21T22:01:33.002Z,5.90
2018-05-21T22:04:09.537Z,7.27
2018-05-21T22:06:46.362Z,4.60
2018-05-21T22:09:22.722Z,4.70
2018-05-21T22:12:00.630Z,5.03
2018-05-21T22:14:37.398Z,4.00
2018-05-21T22:17:13.953Z,4.80
2018-05-21T22:19:50.635Z,6.00
2018-05-21T22:22:26.696Z,4.60
2018-05-21T22:25:03.060Z,4.57
2018-05-21T22:27:40.551Z,4.53
2018-05-21T22:30:16.758Z,4.83
2018-05-21T22:32:53.067Z,4.13
2018-05-21T22:35:29.772Z,5.13
2018-05-21T22:38:06.509Z,5.30
2018-05-21T22:40:42.724Z,6.90
2018-05-21T22:43:19.302Z,5.23
2018-05-21T22:45:55.454Z,7.80
2018-05-21T22:48:31.567Z,4.57
2018-05-21T22:51:08.672Z,7.20
2018-05-21T22:53:44.804Z,4.27
2018-05-21T22:56:21.063Z,5.73
2018-05-21T22:58:59.507Z,4.13
2018-05-21T23:01:35.757Z,3.27
2018-05-21T23:04:12.105Z,3.63
2018-05-21T23:06:49.337Z,3.97
2018-05-21T23:09:25.543Z,7.30
2018-05-21T23:12:02.094Z,4.50
2018-05-21T23:14:38.378Z,4.27
2018-05-21T23:17:16.014Z,5.33
2018-05-21T23:19:52.169Z,5.10
2018-05-21T23:22:37.122Z,5.43
2018-05-21T23:25:14.566Z,6.53
2018-05-21T23:27:50.670Z,5.63
2018-05-21T23:30:26.945Z,5.83
2018-05-21T23:33:03.062Z,4.73
2018-05-21T23:35:39.444Z,4.93
2018-05-21T23:38:17.347Z,5.23
2018-05-21T23:40:53.338Z,5.47
2018-05-21T23:43:29.981Z,5.27
2018-05-21T23:46:06.663Z,4.50
2018-05-21T23:48:42.624Z,4.97
2018-05-21T23:51:19.903Z,6.13
2018-05-21T23:53:56.721Z,6.20
2018-05-21T23:56:32.692Z,4.27
2018-05-21T23:59:08.795Z,6.00
